Time;durP1;ratioP1;P1;durP2;ratioP2;P2;SDS_P1;SDS_P2;PMS_P1;PMS_P2;Temp;Humidity;BMP_temperature;BMP_pressure;BME280_temperature;BME280_humidity;BME280_pressure;Samples;Min_cycle;Max_cycle;Signal;HPM_P1;HPM_P2
2022/05/18 04:02:00;;;;;;;8.70;7.80;;;16.90;99.90;;;;;;5284618;22;20556;-63
2022/05/18 04:04:27;;;;;;;8.73;7.97;;;16.90;99.90;;;;;;4996283;28;20978;-63
2022/05/18 04:06:54;;;;;;;7.87;7.10;;;16.90;99.90;;;;;;4996782;28;20458;-64
2022/05/18 04:09:20;;;;;;;11.37;10.37;;;17.00;99.90;;;;;;4996700;28;20464;-64
2022/05/18 04:11:47;;;;;;;10.60;9.70;;;17.00;99.90;;;;;;4996580;28;20560;-64
2022/05/18 04:14:14;;;;;;;8.63;7.80;;;17.00;99.90;;;;;;4996250;28;20512;-64
2022/05/18 04:16:42;;;;;;;9.83;9.00;;;17.00;99.90;;;;;;4996186;28;20964;-64
2022/05/18 04:19:10;;;;;;;10.43;9.07;;;17.00;99.90;;;;;;4996330;28;20458;-64
2022/05/18 04:21:37;;;;;;;14.00;9.10;;;17.00;99.90;;;;;;4996449;28;20520;-64
2022/05/18 04:24:03;;;;;;;9.87;8.97;;;17.00;99.90;;;;;;4999578;28;20453;-64
2022/05/18 04:26:30;;;;;;;9.40;8.50;;;16.90;99.90;;;;;;4998732;28;20457;-64
2022/05/18 04:28:57;;;;;;;11.40;10.40;;;16.90;99.90;;;;;;4997677;28;20454;-65
2022/05/18 04:31:23;;;;;;;10.83;9.73;;;17.00;99.90;;;;;;4997682;28;20513;-64
2022/05/18 04:33:50;;;;;;;12.80;9.30;;;16.90;99.90;;;;;;4997209;28;20458;-64
2022/05/18 04:36:18;;;;;;;10.27;9.27;;;17.00;99.90;;;;;;4996561;28;20453;-64
2022/05/18 04:38:45;;;;;;;10.73;9.20;;;17.00;99.90;;;;;;4996000;28;20454;-65
2022/05/18 04:41:11;;;;;;;9.87;8.93;;;17.00;99.90;;;;;;4995979;28;20476;-64
2022/05/18 04:43:38;;;;;;;11.50;10.30;;;17.00;99.90;;;;;;4995921;28;20883;-64
2022/05/18 04:46:07;;;;;;;11.40;10.30;;;17.10;99.90;;;;;;4995938;28;20454;-65
2022/05/18 04:48:34;;;;;;;11.23;10.00;;;17.10;99.90;;;;;;4996055;28;20965;-65
2022/05/18 04:51:04;;;;;;;11.90;10.30;;;17.10;99.90;;;;;;4995820;28;20478;-65
2022/05/18 04:53:33;;;;;;;15.20;12.00;;;17.10;99.90;;;;;;4995747;28;20553;-64
2022/05/18 04:55:59;;;;;;;13.87;10.70;;;17.10;99.90;;;;;;4995754;28;20458;-65
2022/05/18 04:58:26;;;;;;;11.40;10.40;;;17.10;99.90;;;;;;4995765;28;20453;-65
2022/05/18 05:00:58;;;;;;;11.30;10.30;;;17.10;99.90;;;;;;4995339;28;20489;-64
2022/05/18 05:03:25;;;;;;;12.80;10.50;;;17.20;99.90;;;;;;4995307;28;20438;-65
2022/05/18 05:05:51;;;;;;;10.27;9.27;;;17.20;99.90;;;;;;4995462;28;20458;-64
2022/05/18 05:08:18;;;;;;;15.53;9.87;;;17.20;99.90;;;;;;4995590;28;20464;-64
2022/05/18 05:10:46;;;;;;;12.17;9.73;;;17.20;99.90;;;;;;4995484;28;20509;-64
2022/05/18 05:13:13;;;;;;;11.03;9.20;;;17.20;99.90;;;;;;4995131;28;21064;-63
2022/05/18 05:15:40;;;;;;;10.03;8.97;;;17.20;99.90;;;;;;4995377;28;20460;-64
2022/05/18 05:18:07;;;;;;;11.60;8.80;;;17.20;99.90;;;;;;4995510;28;20462;-63
2022/05/18 05:20:34;;;;;;;11.07;9.97;;;17.30;99.90;;;;;;4995167;28;20474;-63
2022/05/18 05:23:00;;;;;;;10.80;7.20;;;17.40;99.90;;;;;;4995302;28;20450;-64
2022/05/18 05:25:27;;;;;;;8.50;7.80;;;17.60;99.90;;;;;;4994413;28;20457;-64
2022/05/18 05:27:55;;;;;;;8.90;8.00;;;17.80;99.90;;;;;;4995258;28;20457;-63
2022/05/18 05:30:22;;;;;;;14.00;8.33;;;17.90;99.90;;;;;;4994906;28;20809;-64
2022/05/18 05:32:49;;;;;;;30.40;9.00;;;18.10;99.90;;;;;;4995130;28;20937;-64
2022/05/18 05:35:16;;;;;;;23.47;9.60;;;18.30;99.90;;;;;;4995254;28;20458;-64
2022/05/18 05:37:42;;;;;;;11.40;8.27;;;18.40;99.90;;;;;;4995635;28;20454;-64
2022/05/18 05:40:11;;;;;;;10.30;7.60;;;18.50;99.90;;;;;;4996587;28;20481;-64
2022/05/18 05:42:40;;;;;;;8.10;7.33;;;18.70;99.90;;;;;;4999793;28;20461;-64
2022/05/18 05:45:09;;;;;;;9.33;8.53;;;18.70;99.90;;;;;;4996379;28;20940;-64
2022/05/18 05:47:36;;;;;;;8.57;7.83;;;18.80;99.90;;;;;;4995974;28;20516;-64
2022/05/18 05:50:03;;;;;;;8.80;8.00;;;18.90;99.90;;;;;;4996764;28;20462;-64
2022/05/18 05:52:30;;;;;;;8.70;7.90;;;18.90;99.90;;;;;;4997299;28;20513;-64
2022/05/18 05:54:59;;;;;;;18.47;7.53;;;19.10;99.90;;;;;;4996498;28;20454;-64
2022/05/18 05:57:25;;;;;;;9.17;7.73;;;19.10;99.90;;;;;;4995899;28;20453;-64
2022/05/18 05:59:52;;;;;;;8.70;7.80;;;19.20;99.90;;;;;;4995959;28;20530;-64
2022/05/18 06:02:20;;;;;;;10.60;7.13;;;19.30;99.90;;;;;;4996199;28;20481;-64
2022/05/18 06:04:47;;;;;;;7.13;6.37;;;19.40;99.90;;;;;;4997396;28;20460;-65
2022/05/18 06:07:14;;;;;;;6.87;6.30;;;19.50;99.90;;;;;;4997138;28;20508;-63
2022/05/18 06:09:42;;;;;;;6.83;6.30;;;19.70;99.90;;;;;;4996752;28;20477;-64
2022/05/18 06:12:10;;;;;;;7.27;6.50;;;19.80;99.90;;;;;;4996688;28;20824;-64
2022/05/18 06:14:37;;;;;;;7.10;5.67;;;20.00;99.90;;;;;;4997934;28;20941;-64
2022/05/18 06:17:04;;;;;;;12.60;5.20;;;20.10;99.90;;;;;;4999873;28;20484;-64
2022/05/18 06:19:33;;;;;;;8.93;5.40;;;20.30;99.90;;;;;;4998287;28;20464;-64
2022/05/18 06:22:00;;;;;;;5.93;4.83;;;20.40;99.90;;;;;;4996809;28;20529;-64
2022/05/18 06:24:27;;;;;;;6.67;5.30;;;20.50;99.90;;;;;;4996233;28;20463;-64
2022/05/18 06:26:57;;;;;;;5.00;4.60;;;20.70;99.90;;;;;;4996006;28;20825;-64
2022/05/18 06:29:24;;;;;;;5.30;4.87;;;20.80;99.90;;;;;;4995896;28;20446;-64
2022/05/18 06:31:51;;;;;;;11.40;4.97;;;20.90;99.90;;;;;;4994941;28;20497;-64
2022/05/18 06:34:20;;;;;;;5.10;4.60;;;21.10;99.90;;;;;;4995647;28;20465;-64
2022/05/18 06:36:49;;;;;;;4.70;4.30;;;21.40;99.90;;;;;;4998247;28;20454;-63
2022/05/18 06:39:18;;;;;;;6.87;4.67;;;21.70;99.90;;;;;;4999668;28;20453;-63
2022/05/18 06:41:46;;;;;;;5.43;4.90;;;22.20;99.90;;;;;;4999091;28;20532;-64
2022/05/18 06:44:13;;;;;;;7.00;4.70;;;22.80;99.90;;;;;;4998437;28;20940;-64
2022/05/18 06:46:41;;;;;;;5.60;4.20;;;23.40;99.90;;;;;;4998564;28;20458;-64
2022/05/18 06:49:11;;;;;;;4.63;4.23;;;24.00;99.90;;;;;;4998130;28;20465;-64
2022/05/18 06:51:40;;;;;;;5.80;4.27;;;24.50;99.90;;;;;;4998673;28;20531;-64
2022/05/18 06:54:09;;;;;;;4.73;3.90;;;25.20;99.90;;;;;;4999726;28;20556;-64
2022/05/18 06:56:38;;;;;;;4.80;4.40;;;25.80;99.90;;;;;;4999350;28;20457;-64
2022/05/18 06:59:05;;;;;;;4.37;3.97;;;26.20;99.90;;;;;;4999069;28;20561;-64
2022/05/18 07:01:32;;;;;;;4.50;4.10;;;26.60;98.20;;;;;;4998635;28;20493;-64
2022/05/18 07:03:59;;;;;;;5.30;4.50;;;26.90;96.40;;;;;;4999342;28;20457;-63
2022/05/18 07:06:29;;;;;;;5.00;3.90;;;27.20;95.80;;;;;;4999238;28;20461;-63
2022/05/18 07:08:57;;;;;;;5.37;3.60;;;27.40;95.90;;;;;;4998316;28;20460;-64
2022/05/18 07:11:25;;;;;;;4.60;4.20;;;27.70;94.00;;;;;;4999531;28;20508;-64
2022/05/18 07:13:54;;;;;;;4.63;3.90;;;28.00;93.20;;;;;;4998341;28;20484;-64
2022/05/18 07:16:21;;;;;;;3.90;3.60;;;28.20;92.50;;;;;;4998315;28;20501;-63
2022/05/18 07:18:49;;;;;;;4.87;4.47;;;28.70;92.10;;;;;;4998237;28;20464;-65
2022/05/18 07:21:16;;;;;;;6.17;3.60;;;29.10;90.20;;;;;;4998049;28;20469;-64
2022/05/18 07:23:43;;;;;;;5.50;4.37;;;29.30;86.70;;;;;;4998508;28;20827;-63
2022/05/18 07:26:10;;;;;;;5.47;3.60;;;29.50;85.40;;;;;;4998918;28;20457;-64
2022/05/18 07:28:39;;;;;;;5.40;3.47;;;29.60;82.70;;;;;;4999229;28;20461;-64
2022/05/18 07:31:06;;;;;;;4.77;3.90;;;29.70;80.30;;;;;;4998919;28;20576;-65
2022/05/18 07:33:33;;;;;;;5.37;4.30;;;29.50;83.70;;;;;;4999238;28;20461;-64
2022/05/18 07:36:00;;;;;;;3.80;3.60;;;29.70;82.30;;;;;;4998333;28;20937;-64
2022/05/18 07:38:29;;;;;;;8.90;3.83;;;29.80;78.60;;;;;;4998517;28;20458;-64
2022/05/18 07:40:56;;;;;;;3.90;3.57;;;30.10;78.90;;;;;;4998422;28;20968;-64
2022/05/18 07:43:22;;;;;;;4.60;3.40;;;30.50;78.50;;;;;;4999370;28;20450;-65
2022/05/18 07:45:53;;;;;;;3.73;3.47;;;30.90;80.10;;;;;;4999131;28;20454;-64
2022/05/18 07:48:20;;;;;;;3.70;3.40;;;31.40;74.60;;;;;;4998405;28;20799;-64
2022/05/18 07:50:47;;;;;;;3.90;3.30;;;31.40;71.30;;;;;;4998824;28;20478;-64
2022/05/18 07:53:14;;;;;;;4.23;3.47;;;31.60;74.90;;;;;;4998987;28;20850;-64
2022/05/18 07:55:41;;;;;;;4.87;3.77;;;31.80;69.40;;;;;;4998381;28;20476;-64
2022/05/18 07:58:10;;;;;;;4.10;3.70;;;32.00;69.10;;;;;;4998568;28;20465;-65
2022/05/18 08:00:38;;;;;;;4.13;3.73;;;32.20;69.20;;;;;;4998336;28;20897;-64
2022/05/18 08:03:07;;;;;;;4.47;4.07;;;32.50;70.20;;;;;;4998509;28;20445;-64
2022/05/18 08:05:35;;;;;;;3.83;3.33;;;32.70;67.30;;;;;;4998585;28;20874;-64
2022/05/18 08:08:05;;;;;;;6.43;3.50;;;32.90;65.60;;;;;;4999486;28;20457;-66
2022/05/18 08:15:57;;;;;;;3.90;3.60;;;33.40;63.60;;;;;;4997302;28;20417;-65
2022/05/18 08:18:25;;;;;;;5.13;3.40;;;33.40;63.40;;;;;;4998061;28;20453;-65
2022/05/18 08:20:52;;;;;;;4.63;3.73;;;33.70;61.70;;;;;;4997678;28;20484;-65
2022/05/18 08:23:19;;;;;;;3.23;3.03;;;33.90;60.30;;;;;;4996695;28;20454;-65
2022/05/18 08:25:47;;;;;;;4.50;3.17;;;33.70;59.50;;;;;;4997541;28;20457;-65
2022/05/18 08:28:15;;;;;;;4.20;3.40;;;33.50;59.60;;;;;;4998045;28;20461;-65
2022/05/18 08:30:43;;;;;;;3.17;2.93;;;33.50;60.50;;;;;;4996581;28;20473;-65
2022/05/18 08:33:11;;;;;;;5.77;3.70;;;33.60;60.20;;;;;;4996068;28;20844;-64
2022/05/18 08:35:43;;;;;;;5.60;4.17;;;33.60;58.80;;;;;;4996016;28;20976;-64
2022/05/18 08:38:11;;;;;;;4.63;3.20;;;33.70;58.90;;;;;;4996553;28;20628;-65
2022/05/18 08:40:41;;;;;;;4.70;3.67;;;33.70;58.70;;;;;;4996298;28;20477;-65
2022/05/18 08:43:10;;;;;;;5.97;5.37;;;34.00;61.40;;;;;;4995963;28;20795;-65
2022/05/18 08:45:41;;;;;;;4.73;2.90;;;34.20;61.70;;;;;;4996739;28;20531;-64
2022/05/18 08:48:20;;;;;;;4.93;3.40;;;34.80;58.80;;;;;;4996241;28;20452;-65
2022/05/18 08:50:48;;;;;;;3.70;3.23;;;35.30;57.40;;;;;;4996131;28;20473;-65
2022/05/18 08:53:31;;;;;;;3.50;3.30;;;35.80;56.00;;;;;;4996036;28;21050;-65
2022/05/18 08:56:04;;;;;;;3.37;3.20;;;36.20;55.50;;;;;;4996113;28;20799;-64
2022/05/18 08:58:41;;;;;;;3.47;3.27;;;36.60;53.90;;;;;;4996057;28;20846;-65
2022/05/18 09:01:14;;;;;;;4.37;3.00;;;36.20;55.00;;;;;;4995422;28;20481;-65
2022/05/18 09:03:44;;;;;;;3.63;3.33;;;36.50;53.10;;;;;;4995533;28;20975;-65
2022/05/18 09:06:20;;;;;;;4.77;3.37;;;36.70;54.50;;;;;;4995678;28;20493;-65
2022/05/18 09:10:12;;;;;;;6.40;3.40;;;36.90;52.70;;;;;;4995670;28;20441;-65
2022/05/18 09:11:40;;;;;;;3.53;3.10;;;37.20;52.00;;;;;;4995017;28;20473;-64
2022/05/18 09:14:10;;;;;;;4.27;3.23;;;37.20;52.10;;;;;;4995469;28;20457;-66
2022/05/18 09:16:41;;;;;;;5.43;3.57;;;37.50;51.70;;;;;;4994949;28;20548;-66
2022/05/18 09:19:18;;;;;;;3.00;2.80;;;37.60;51.70;;;;;;4995308;28;20444;-66
2022/05/18 09:21:55;;;;;;;3.30;3.10;;;37.90;49.40;;;;;;5010858;28;20465;-66
2022/05/18 09:24:36;;;;;;;3.37;3.07;;;38.10;52.90;;;;;;5005069;28;20440;-66
2022/05/18 09:27:25;;;;;;;3.30;2.80;;;38.30;49.30;;;;;;4995876;28;20508;-65
2022/05/18 09:29:59;;;;;;;2.97;2.77;;;38.50;48.30;;;;;;4995081;28;20448;-65
2022/05/18 09:32:37;;;;;;;2.70;2.50;;;38.30;47.30;;;;;;4994685;28;20536;-66
2022/05/18 09:35:32;;;;;;;2.60;2.40;;;38.00;48.10;;;;;;4994953;28;20448;-65
2022/05/18 09:38:05;;;;;;;2.97;2.63;;;37.60;47.90;;;;;;4985784;28;20460;-64
2022/05/18 09:40:36;;;;;;;2.90;2.70;;;37.40;46.30;;;;;;4995024;28;20473;-64
2022/05/18 09:43:10;;;;;;;2.80;2.70;;;37.30;46.20;;;;;;4994943;28;20441;-65
2022/05/18 09:45:40;;;;;;;3.63;3.03;;;37.20;46.50;;;;;;4994665;28;20904;-64
2022/05/18 09:48:11;;;;;;;2.70;2.50;;;37.60;50.30;;;;;;4994986;28;20457;-64
2022/05/18 09:50:40;;;;;;;3.20;2.90;;;37.90;45.80;;;;;;4994433;28;20996;-65
2022/05/18 09:53:08;;;;;;;3.00;2.77;;;38.00;45.70;;;;;;4994779;28;20481;-65
2022/05/18 09:55:35;;;;;;;3.50;2.90;;;37.90;48.80;;;;;;4994707;28;20461;-65
2022/05/18 09:58:08;;;;;;;9.33;3.00;;;38.00;45.40;;;;;;4994815;28;20936;-65
2022/05/18 10:00:37;;;;;;;2.77;2.57;;;37.90;45.00;;;;;;4994514;28;20485;-65
2022/05/18 10:08:48;;;;;;;3.60;2.33;;;37.60;45.10;;;;;;4994558;28;20425;-64
2022/05/18 10:11:18;;;;;;;2.53;2.43;;;37.20;46.30;;;;;;4994792;28;20593;-66
2022/05/18 10:13:56;;;;;;;2.37;2.27;;;37.10;45.90;;;;;;4994552;28;20872;-65
2022/05/18 10:16:34;;;;;;;4.27;2.03;;;37.40;46.00;;;;;;4994768;28;20441;-65
2022/05/18 10:19:03;;;;;;;2.60;2.40;;;37.70;45.70;;;;;;4994270;28;20917;-65
2022/05/18 10:21:36;;;;;;;2.93;2.73;;;37.90;45.80;;;;;;4994379;28;20473;-65
2022/05/18 10:24:07;;;;;;;2.37;2.20;;;38.20;43.10;;;;;;4994319;28;20438;-65
2022/05/18 10:26:38;;;;;;;3.23;2.60;;;37.80;43.20;;;;;;4994296;28;20448;-65
2022/05/18 10:29:08;;;;;;;3.50;2.50;;;37.80;44.10;;;;;;4994298;28;20437;-65
2022/05/18 10:31:38;;;;;;;4.00;2.40;;;37.50;42.70;;;;;;4994706;28;20477;-66
2022/05/18 10:34:15;;;;;;;2.80;2.53;;;37.20;43.70;;;;;;4994378;28;20537;-65
2022/05/18 10:36:44;;;;;;;2.70;2.60;;;37.20;44.50;;;;;;4994217;28;20503;-65
2022/05/18 10:39:12;;;;;;;4.93;2.97;;;37.50;44.80;;;;;;4993920;28;20952;-65
2022/05/18 10:41:42;;;;;;;2.50;2.37;;;37.80;45.40;;;;;;4994212;28;20477;-65
2022/05/18 10:44:16;;;;;;;2.77;2.67;;;38.30;44.80;;;;;;4995287;28;20446;-65
2022/05/18 10:46:45;;;;;;;2.70;2.50;;;38.40;43.60;;;;;;4994234;28;20448;-66
2022/05/18 10:49:26;;;;;;;2.30;2.20;;;38.30;43.30;;;;;;4994269;28;20464;-65
2022/05/18 10:51:53;;;;;;;2.23;2.13;;;37.80;44.40;;;;;;4994680;28;20990;-65
2022/05/18 10:54:24;;;;;;;3.00;2.80;;;37.50;44.50;;;;;;4994190;28;20507;-66
2022/05/18 10:56:52;;;;;;;3.60;3.07;;;37.40;45.60;;;;;;4994370;28;20442;-65
2022/05/18 10:59:40;;;;;;;2.83;2.40;;;37.20;44.20;;;;;;4994082;28;20507;-65
2022/05/18 11:02:13;;;;;;;2.43;2.33;;;36.90;45.50;;;;;;4993853;28;20557;-65
2022/05/18 11:04:50;;;;;;;2.90;2.70;;;36.90;44.20;;;;;;4994141;28;20446;-65
2022/05/18 11:07:19;;;;;;;2.10;2.07;;;37.10;47.00;;;;;;4994121;28;20496;-64
2022/05/18 11:09:47;;;;;;;2.47;2.33;;;36.80;43.70;;;;;;4994339;28;20481;-64
2022/05/18 11:12:23;;;;;;;2.37;2.17;;;36.80;45.60;;;;;;4994664;28;20484;-64
2022/05/18 11:14:58;;;;;;;2.43;2.27;;;36.80;45.00;;;;;;4994494;28;20444;-65
2022/05/18 11:17:38;;;;;;;2.53;2.40;;;36.70;43.30;;;;;;4994187;28;20463;-66
2022/05/18 11:20:17;;;;;;;3.40;1.90;;;36.40;43.90;;;;;;4993982;28;20452;-65
2022/05/18 11:22:53;;;;;;;2.00;1.90;;;36.10;44.30;;;;;;4994551;28;20433;-66
2022/05/18 11:25:29;;;;;;;1.70;1.60;;;36.00;43.70;;;;;;4997233;28;20854;-65
2022/05/18 11:28:02;;;;;;;2.00;1.80;;;36.00;43.90;;;;;;4997651;28;20437;-65
2022/05/18 11:30:37;;;;;;;2.87;2.40;;;35.80;44.30;;;;;;4997582;28;20496;-65
2022/05/18 11:33:18;;;;;;;2.10;2.00;;;35.50;44.30;;;;;;4997714;28;20539;-67
2022/05/18 11:35:54;;;;;;;1.90;1.80;;;35.30;43.40;;;;;;4996832;28;20437;-66
2022/05/18 11:38:48;;;;;;;2.10;1.83;;;35.20;44.60;;;;;;4997349;28;20441;-65
2022/05/18 11:41:44;;;;;;;1.90;1.80;;;35.00;45.00;;;;;;4998384;28;20894;-66
2022/05/18 11:44:23;;;;;;;2.10;2.00;;;34.90;45.10;;;;;;5008246;28;20836;-65
2022/05/18 11:47:24;;;;;;;2.10;1.80;;;34.60;45.70;;;;;;5010283;28;20433;-66
2022/05/18 11:50:07;;;;;;;2.00;1.90;;;34.30;47.90;;;;;;4997818;28;20448;-64
2022/05/18 11:52:54;;;;;;;2.77;2.57;;;34.00;45.50;;;;;;4997298;28;20858;-66
2022/05/18 11:55:33;;;;;;;2.40;2.10;;;33.60;47.50;;;;;;4996707;28;20437;-66
2022/05/18 11:58:11;;;;;;;2.70;2.60;;;33.40;48.20;;;;;;4996878;28;20445;-64
2022/05/18 12:00:54;;;;;;;3.10;2.70;;;32.90;45.60;;;;;;4996555;28;20861;-65
2022/05/18 12:03:51;;;;;;;2.23;2.03;;;32.50;47.20;;;;;;4996694;28;20434;-65
2022/05/18 12:06:47;;;;;;;2.30;2.10;;;32.20;48.50;;;;;;4987988;28;20453;-65
2022/05/18 12:09:24;;;;;;;2.17;2.07;;;32.10;49.10;;;;;;4996356;28;20442;-65
2022/05/18 12:12:03;;;;;;;3.40;2.53;;;32.10;48.50;;;;;;4996146;28;21073;-64
2022/05/18 12:14:41;;;;;;;2.07;1.97;;;32.10;47.20;;;;;;4997518;28;20462;-65
2022/05/18 12:17:12;;;;;;;3.03;2.63;;;31.90;48.20;;;;;;4997552;28;20465;-64
2022/05/18 12:19:47;;;;;;;2.80;1.77;;;31.90;48.00;;;;;;4996443;28;20442;-65
2022/05/18 12:22:16;;;;;;;4.17;2.23;;;32.00;48.00;;;;;;4996318;28;20481;-65
2022/05/18 12:24:46;;;;;;;2.03;1.90;;;32.10;48.80;;;;;;4995914;28;20820;-66
2022/05/18 12:27:16;;;;;;;4.10;2.83;;;31.60;48.10;;;;;;4996228;28;20804;-64
2022/05/18 12:29:46;;;;;;;2.30;2.10;;;31.70;49.10;;;;;;4996301;28;20465;-65
2022/05/18 12:32:16;;;;;;;3.00;2.20;;;31.60;48.10;;;;;;4996190;28;20478;-65
2022/05/18 12:34:46;;;;;;;2.23;1.97;;;31.80;50.60;;;;;;4996006;28;20445;-65
2022/05/18 12:37:28;;;;;;;2.47;2.27;;;31.90;49.50;;;;;;4997003;28;20457;-65
2022/05/18 12:40:19;;;;;;;4.73;2.40;;;32.00;48.90;;;;;;4996246;28;20437;-65
2022/05/18 12:42:51;;;;;;;4.10;2.13;;;31.80;49.40;;;;;;4996328;28;20488;-65
2022/05/18 12:45:33;;;;;;;2.37;2.10;;;31.70;52.00;;;;;;4995984;28;20520;-65
2022/05/18 12:48:12;;;;;;;2.73;2.63;;;31.70;49.90;;;;;;4995960;28;20438;-65
2022/05/18 12:50:44;;;;;;;2.33;1.93;;;31.90;50.40;;;;;;4995849;28;20548;-65
2022/05/18 12:53:18;;;;;;;3.00;2.70;;;32.10;49.40;;;;;;4996235;28;20462;-65
2022/05/18 12:55:55;;;;;;;2.60;2.37;;;32.20;51.00;;;;;;4996024;28;20442;-65
2022/05/18 12:58:27;;;;;;;2.53;2.33;;;32.30;51.00;;;;;;4996329;28;20473;-65
2022/05/18 13:01:04;;;;;;;2.27;2.17;;;32.50;51.60;;;;;;4995431;28;20496;-65
2022/05/18 13:03:58;;;;;;;5.10;2.23;;;32.30;49.30;;;;;;4996287;28;20434;-65
2022/05/18 13:06:40;;;;;;;2.23;2.13;;;32.10;46.70;;;;;;4995737;28;20474;-65
2022/05/18 13:09:34;;;;;;;2.53;2.33;;;31.70;48.50;;;;;;4995731;28;20868;-65
2022/05/18 13:12:26;;;;;;;2.20;2.10;;;31.60;48.50;;;;;;4995444;28;20473;-65
2022/05/18 13:15:03;;;;;;;2.27;2.07;;;31.40;49.00;;;;;;4995608;28;20508;-65
2022/05/18 13:17:54;;;;;;;2.73;2.13;;;31.40;52.10;;;;;;4995668;28;20443;-65
2022/05/18 13:20:46;;;;;;;2.63;2.50;;;31.50;52.40;;;;;;4995197;28;20446;-65
2022/05/18 13:23:25;;;;;;;3.43;2.33;;;31.50;50.10;;;;;;4990697;28;20782;-65
2022/05/18 13:25:55;;;;;;;2.83;2.63;;;31.60;51.80;;;;;;4995378;28;20521;-65
2022/05/18 13:28:24;;;;;;;2.30;2.17;;;31.90;51.10;;;;;;4995433;28;20438;-65
2022/05/18 13:30:53;;;;;;;3.63;2.30;;;32.00;49.50;;;;;;4995052;28;20473;-65
2022/05/18 13:33:22;;;;;;;2.50;2.40;;;32.10;48.70;;;;;;4995190;28;20477;-65
2022/05/18 13:35:51;;;;;;;2.40;2.30;;;32.20;48.60;;;;;;4994985;28;20485;-65
2022/05/18 13:38:21;;;;;;;2.00;1.90;;;32.20;47.20;;;;;;4995406;28;20453;-66
2022/05/18 13:40:53;;;;;;;2.03;1.80;;;32.20;45.90;;;;;;4995343;28;20477;-65
2022/05/18 13:43:21;;;;;;;2.10;2.00;;;32.20;48.40;;;;;;4995208;28;20439;-65
2022/05/18 13:45:52;;;;;;;2.10;1.97;;;32.20;47.60;;;;;;4994346;28;20484;-65
2022/05/18 13:48:19;;;;;;;2.40;2.20;;;32.00;49.10;;;;;;4995126;28;20437;-65
2022/05/18 13:50:52;;;;;;;2.43;2.23;;;31.90;48.50;;;;;;4994885;28;21015;-65
2022/05/18 13:53:23;;;;;;;2.50;2.20;;;31.90;48.60;;;;;;4994640;28;21019;-65
2022/05/18 13:55:55;;;;;;;2.10;2.00;;;31.70;48.10;;;;;;4994416;28;20828;-65
2022/05/18 13:58:23;;;;;;;2.83;2.07;;;31.70;48.10;;;;;;4995261;28;20449;-65
2022/05/18 14:00:55;;;;;;;2.37;2.20;;;31.90;51.50;;;;;;4994808;28;20947;-65
2022/05/18 14:03:29;;;;;;;2.70;2.47;;;32.10;51.80;;;;;;4995117;28;20445;-65
2022/05/18 14:05:59;;;;;;;2.67;2.47;;;32.20;48.60;;;;;;4994826;28;20438;-64
2022/05/18 14:08:30;;;;;;;1.93;1.83;;;32.20;48.20;;;;;;4994889;28;20422;-65
2022/05/18 14:10:58;;;;;;;1.93;1.83;;;32.30;49.60;;;;;;4994548;28;20485;-65
2022/05/18 14:13:25;;;;;;;2.13;2.03;;;32.30;48.10;;;;;;4994409;28;20473;-64
2022/05/18 14:15:53;;;;;;;2.67;2.47;;;32.30;48.20;;;;;;4994552;28;20465;-64
2022/05/18 14:18:27;;;;;;;2.90;2.30;;;32.30;50.20;;;;;;4994569;28;20511;-65
2022/05/18 14:20:58;;;;;;;3.70;2.50;;;32.20;48.50;;;;;;4994117;28;20478;-65
2022/05/18 14:23:32;;;;;;;2.60;2.40;;;32.20;48.50;;;;;;4994386;28;20781;-65
2022/05/18 14:26:02;;;;;;;2.07;1.97;;;32.10;49.20;;;;;;4994975;28;20566;-65
2022/05/18 14:28:32;;;;;;;4.07;2.80;;;31.80;48.70;;;;;;4994432;28;20477;-65
2022/05/18 14:31:01;;;;;;;2.33;2.13;;;31.80;49.70;;;;;;4994380;28;20473;-65
2022/05/18 14:33:40;;;;;;;2.60;2.37;;;31.90;49.80;;;;;;4993672;28;20842;-64
2022/05/18 14:36:29;;;;;;;2.90;2.07;;;31.80;50.10;;;;;;4994212;28;20451;-65
2022/05/18 14:39:00;;;;;;;1.83;1.73;;;31.70;47.90;;;;;;4993948;28;20976;-65
2022/05/18 14:41:28;;;;;;;3.50;2.37;;;31.40;46.60;;;;;;4994532;28;20838;-66
2022/05/18 14:44:00;;;;;;;1.80;1.70;;;31.10;46.80;;;;;;4994356;28;20520;-63
2022/05/18 14:46:29;;;;;;;2.37;2.27;;;31.00;48.40;;;;;;4994039;28;20950;-65
2022/05/18 14:49:12;;;;;;;2.47;2.30;;;31.00;48.20;;;;;;4994289;28;20453;-65
2022/05/18 14:51:47;;;;;;;2.00;1.90;;;31.00;49.60;;;;;;4994333;28;20572;-65
2022/05/18 14:54:17;;;;;;;3.23;2.87;;;31.10;48.00;;;;;;4994183;28;20497;-65
2022/05/18 14:56:49;;;;;;;2.77;2.10;;;31.10;50.10;;;;;;4995997;28;20449;-65
2022/05/18 14:59:18;;;;;;;3.97;2.43;;;30.90;49.20;;;;;;4998004;28;20750;-64
2022/05/18 15:01:47;;;;;;;2.27;2.10;;;30.90;50.10;;;;;;4998025;28;20485;-64
2022/05/18 15:04:21;;;;;;;2.43;2.33;;;31.00;48.30;;;;;;4998019;28;20449;-64
2022/05/18 15:06:52;;;;;;;3.83;2.60;;;30.90;50.10;;;;;;4998076;28;20438;-64
2022/05/18 15:09:24;;;;;;;2.63;2.13;;;30.90;51.20;;;;;;4997964;28;20813;-64
2022/05/18 15:11:57;;;;;;;2.20;2.10;;;30.80;49.70;;;;;;4997976;28;20568;-64
2022/05/18 15:14:42;;;;;;;3.60;2.33;;;30.80;51.20;;;;;;4997973;28;20553;-65
2022/05/18 15:17:18;;;;;;;3.30;2.97;;;30.80;50.70;;;;;;4998059;28;20438;-64
2022/05/18 15:19:48;;;;;;;5.97;2.50;;;30.70;51.20;;;;;;4998002;28;20544;-64
2022/05/18 15:22:25;;;;;;;3.00;2.80;;;30.60;51.30;;;;;;4997983;28;20470;-64
2022/05/18 15:24:52;;;;;;;3.47;3.17;;;30.60;51.20;;;;;;4997986;28;20790;-64
2022/05/18 15:27:26;;;;;;;4.03;2.43;;;30.60;51.50;;;;;;4997895;28;20533;-64
2022/05/18 15:29:56;;;;;;;3.53;2.73;;;30.60;51.20;;;;;;4997774;28;20536;-64
2022/05/18 15:32:26;;;;;;;3.60;3.30;;;30.60;52.00;;;;;;4997858;28;20473;-64
2022/05/18 15:34:59;;;;;;;2.50;2.30;;;30.60;51.80;;;;;;4997524;28;20474;-64
2022/05/18 15:37:29;;;;;;;2.80;2.60;;;30.50;51.60;;;;;;4997761;28;20469;-64
2022/05/18 15:39:56;;;;;;;2.30;2.20;;;30.50;52.00;;;;;;4997734;28;20465;-64
2022/05/18 15:42:24;;;;;;;2.60;2.40;;;30.30;51.10;;;;;;4997459;28;20474;-64
2022/05/18 15:44:52;;;;;;;3.50;2.47;;;30.10;51.40;;;;;;4997268;28;20450;-64
2022/05/18 15:47:22;;;;;;;2.60;2.50;;;30.20;52.30;;;;;;4997152;28;20456;-64
2022/05/18 15:49:54;;;;;;;2.90;2.70;;;30.20;52.00;;;;;;4997273;28;20446;-64
2022/05/18 15:52:21;;;;;;;3.50;2.20;;;30.20;52.00;;;;;;4997066;28;20508;-65
2022/05/18 15:54:56;;;;;;;2.37;2.17;;;30.10;52.00;;;;;;4997076;28;20875;-64
2022/05/18 15:57:27;;;;;;;2.30;2.20;;;30.10;52.00;;;;;;4997103;28;20437;-64
2022/05/18 15:59:54;;;;;;;2.30;2.20;;;30.20;51.80;;;;;;4997078;28;20461;-64
2022/05/18 16:02:21;;;;;;;3.93;2.87;;;30.10;52.60;;;;;;4996648;28;20481;-64
2022/05/18 16:04:47;;;;;;;3.00;2.30;;;30.10;52.30;;;;;;4997005;28;20828;-65
2022/05/18 16:07:14;;;;;;;2.60;2.37;;;30.10;52.00;;;;;;4997007;28;20458;-64
2022/05/18 16:09:41;;;;;;;2.80;2.60;;;29.90;52.20;;;;;;4996149;28;20464;-65
2022/05/18 16:12:11;;;;;;;3.23;3.10;;;29.80;52.10;;;;;;4996817;28;20477;-65
2022/05/18 16:14:38;;;;;;;2.63;2.43;;;29.70;52.90;;;;;;4996658;28;20481;-64
2022/05/18 16:17:05;;;;;;;2.83;2.63;;;29.60;53.50;;;;;;4996871;28;20450;-65
2022/05/18 16:19:32;;;;;;;3.13;2.83;;;29.60;53.10;;;;;;4996358;28;20454;-64
2022/05/18 16:21:59;;;;;;;4.30;2.87;;;29.50;53.20;;;;;;4996233;28;20473;-65
2022/05/18 16:24:30;;;;;;;3.20;3.00;;;29.50;53.90;;;;;;4996182;28;20508;-64
2022/05/18 16:26:58;;;;;;;2.60;2.50;;;29.40;53.90;;;;;;4996454;28;20470;-64
2022/05/18 16:29:28;;;;;;;3.13;2.43;;;29.40;53.70;;;;;;4996514;28;20464;-64
2022/05/18 16:31:56;;;;;;;3.30;3.00;;;29.50;53.50;;;;;;4996371;28;20473;-64
2022/05/18 16:34:23;;;;;;;2.90;2.70;;;29.50;54.30;;;;;;4996375;28;20489;-64
2022/05/18 16:36:50;;;;;;;2.90;2.60;;;29.50;53.70;;;;;;4996522;28;20866;-64
2022/05/18 16:39:17;;;;;;;2.73;2.50;;;29.50;54.20;;;;;;4996641;28;20453;-64
2022/05/18 16:41:44;;;;;;;2.97;2.70;;;29.40;54.30;;;;;;4996913;28;20536;-65
2022/05/18 16:44:14;;;;;;;3.50;3.20;;;29.20;54.70;;;;;;4996213;28;20459;-64
2022/05/18 16:46:44;;;;;;;3.00;2.90;;;29.20;55.00;;;;;;4996087;28;20453;-64
2022/05/18 16:49:11;;;;;;;2.80;2.60;;;29.10;55.30;;;;;;4995909;28;20851;-64
2022/05/18 16:51:39;;;;;;;4.87;2.77;;;29.10;55.60;;;;;;4995956;28;20561;-65
2022/05/18 16:54:06;;;;;;;4.93;3.10;;;29.10;55.50;;;;;;4995854;28;20473;-64
2022/05/18 16:56:35;;;;;;;2.73;2.50;;;29.00;54.60;;;;;;4995853;28;20454;-65
2022/05/18 16:59:02;;;;;;;3.40;3.10;;;29.00;55.50;;;;;;4995372;28;20454;-64
2022/05/18 17:01:29;;;;;;;3.50;3.10;;;28.90;56.20;;;;;;4995464;28;20497;-65
2022/05/18 17:03:57;;;;;;;3.37;3.07;;;28.80;56.70;;;;;;4995527;28;20453;-64
2022/05/18 17:06:23;;;;;;;5.53;3.60;;;28.60;56.90;;;;;;4995361;28;20461;-65
2022/05/18 17:08:55;;;;;;;3.40;3.10;;;28.50;56.80;;;;;;4996032;28;20508;-65
2022/05/18 17:11:27;;;;;;;3.40;3.10;;;28.50;57.00;;;;;;4995339;28;21051;-64
2022/05/18 17:13:55;;;;;;;3.97;3.60;;;28.50;57.40;;;;;;4997977;28;20438;-67
2022/05/18 17:16:24;;;;;;;4.93;3.13;;;28.50;58.00;;;;;;5006553;28;20461;-66
2022/05/18 17:18:52;;;;;;;3.80;3.30;;;28.40;57.90;;;;;;5006031;28;20454;-67